Time;durP1;ratioP1;P1;durP2;ratioP2;P2;SDS_P1;SDS_P2;PMS_P1;PMS_P2;Temp;Humidity;BMP_temperature;BMP_pressure;BME280_temperature;BME280_humidity;BME280_pressure;Samples;Min_cycle;Max_cycle;Signal;HPM_P1;HPM_P2
2023/12/02 00:00:19;;;;;;;13.17;9.47;;;;;;;;;;5049079;28;20593;-88
2023/12/02 00:02:47;;;;;;;10.50;9.37;;;;;;;;;;5048740;28;20209;-87
2023/12/02 00:05:14;;;;;;;11.17;9.73;;;;;;;;;;5049121;28;20688;-88
2023/12/02 00:07:41;;;;;;;11.53;9.97;;;;;;;;;;5049010;28;20630;-87
2023/12/02 00:10:09;;;;;;;13.57;10.23;;;;;;;;;;5039855;28;20206;-88
2023/12/02 00:12:36;;;;;;;13.57;11.23;;;;;;;;;;5044956;28;20222;-88
2023/12/02 00:15:03;;;;;;;12.27;10.50;;;;;;;;;;5048973;28;20217;-87
2023/12/02 00:17:30;;;;;;;12.50;10.43;;;;;;;;;;5049092;28;20617;-88
2023/12/02 00:20:00;;;;;;;11.53;10.43;;;;;;;;;;5049120;28;20210;-88
2023/12/02 00:22:27;;;;;;;12.70;10.37;;;;;;;;;;5030591;28;20230;-88
2023/12/02 00:24:54;;;;;;;10.27;9.23;;;;;;;;;;5029058;28;20207;-88
2023/12/02 00:27:20;;;;;;;9.47;8.63;;;;;;;;;;5041922;28;20207;-87
2023/12/02 00:29:47;;;;;;;9.97;8.77;;;;;;;;;;5039673;28;20216;-88
2023/12/02 00:32:14;;;;;;;13.43;8.90;;;;;;;;;;5048119;28;20225;-88
2023/12/02 00:34:41;;;;;;;11.87;9.20;;;;;;;;;;5037065;28;20211;-88
2023/12/02 00:37:09;;;;;;;9.83;8.83;;;;;;;;;;5046707;28;20208;-88
2023/12/02 00:39:36;;;;;;;8.73;7.90;;;;;;;;;;5048274;28;20217;-88
2023/12/02 00:42:02;;;;;;;10.27;9.17;;;;;;;;;;5042394;28;20210;-87
2023/12/02 00:44:29;;;;;;;10.10;9.10;;;;;;;;;;5029316;28;20207;-89
2023/12/02 00:46:56;;;;;;;10.50;9.50;;;;;;;;;;5041550;28;20214;-88
2023/12/02 00:49:23;;;;;;;10.90;9.67;;;;;;;;;;5040452;28;20237;-88
2023/12/02 00:51:50;;;;;;;12.57;9.77;;;;;;;;;;5042472;28;20231;-88
2023/12/02 00:54:18;;;;;;;10.40;9.33;;;;;;;;;;5040907;28;20205;-88
2023/12/02 00:56:45;;;;;;;10.60;9.10;;;;;;;;;;5035052;28;20199;-88
2023/12/02 00:59:14;;;;;;;9.93;8.00;;;;;;;;;;5035013;28;20661;-88
2023/12/02 01:01:40;;;;;;;10.10;9.03;;;;;;;;;;5031764;28;20206;-88
2023/12/02 01:04:07;;;;;;;9.40;8.10;;;;;;;;;;5045353;28;20202;-87
2023/12/02 01:06:34;;;;;;;8.73;7.67;;;;;;;;;;5051918;28;20206;-88
2023/12/02 01:09:01;;;;;;;9.20;8.30;;;;;;;;;;5051696;28;20206;-88
2023/12/02 01:11:29;;;;;;;10.30;8.73;;;;;;;;;;5025814;28;20708;-88
2023/12/02 01:13:56;;;;;;;8.37;7.40;;;;;;;;;;5051084;28;20213;-88
2023/12/02 01:16:23;;;;;;;10.70;9.60;;;;;;;;;;5031515;28;20197;-88
2023/12/02 01:18:50;;;;;;;8.83;7.67;;;;;;;;;;5032247;28;20684;-88
2023/12/02 01:21:17;;;;;;;11.60;8.30;;;;;;;;;;5051208;28;20293;-88
2023/12/02 01:23:43;;;;;;;10.50;9.40;;;;;;;;;;5038127;28;20194;-88
2023/12/02 01:26:11;;;;;;;12.37;9.57;;;;;;;;;;5051730;28;20289;-89
2023/12/02 01:28:39;;;;;;;15.63;9.73;;;;;;;;;;5049166;28;20249;-88
2023/12/02 01:31:06;;;;;;;8.97;8.10;;;;;;;;;;5040630;28;20213;-88
2023/12/02 01:33:33;;;;;;;10.23;8.73;;;;;;;;;;5050769;28;20205;-88
2023/12/02 01:36:00;;;;;;;14.30;9.37;;;;;;;;;;5041259;28;20681;-88
2023/12/02 01:38:27;;;;;;;9.63;8.63;;;;;;;;;;5044570;28;20198;-89
2023/12/02 01:40:54;;;;;;;10.73;9.43;;;;;;;;;;5041147;28;20209;-88
2023/12/02 01:43:25;;;;;;;9.30;8.10;;;;;;;;;;5050823;28;20202;-88
2023/12/02 01:45:53;;;;;;;10.73;9.53;;;;;;;;;;5051117;28;20209;-88
2023/12/02 01:48:21;;;;;;;12.93;9.30;;;;;;;;;;5037753;28;20213;-88
2023/12/02 01:50:47;;;;;;;10.80;8.30;;;;;;;;;;5050836;28;20208;-88
2023/12/02 01:53:14;;;;;;;11.60;8.20;;;;;;;;;;5050698;28;20229;-89
2023/12/02 01:55:41;;;;;;;9.33;8.30;;;;;;;;;;5050966;28;20217;-88
2023/12/02 01:58:08;;;;;;;8.73;7.40;;;;;;;;;;5032378;28;20206;-89
2023/12/02 02:00:35;;;;;;;9.27;8.23;;;;;;;;;;5042839;28;20679;-88
2023/12/02 02:03:03;;;;;;;11.03;8.07;;;;;;;;;;5050717;28;20198;-89
2023/12/02 02:05:30;;;;;;;9.83;8.53;;;;;;;;;;5038218;28;20214;-88
2023/12/02 02:07:57;;;;;;;9.83;8.13;;;;;;;;;;5036654;28;20201;-89
2023/12/02 02:10:23;;;;;;;11.50;8.13;;;;;;;;;;5039403;28;20239;-89
2023/12/02 02:12:50;;;;;;;8.97;8.07;;;;;;;;;;5048682;28;20225;-88
2023/12/02 02:15:17;;;;;;;10.30;8.27;;;;;;;;;;5038817;28;20579;-88
2023/12/02 02:17:44;;;;;;;11.93;8.10;;;;;;;;;;5030538;28;20213;-89
2023/12/02 02:20:12;;;;;;;9.40;8.43;;;;;;;;;;5042989;28;20285;-89
2023/12/02 02:22:41;;;;;;;10.07;8.63;;;;;;;;;;5050623;28;20584;-89
2023/12/02 02:25:08;;;;;;;11.50;8.50;;;;;;;;;;5050615;28;20201;-89
2023/12/02 02:27:34;;;;;;;9.30;8.37;;;;;;;;;;5043823;28;20203;-89
2023/12/02 02:30:01;;;;;;;11.63;9.60;;;;;;;;;;5043837;28;20210;-89
2023/12/02 02:32:28;;;;;;;11.97;9.23;;;;;;;;;;5023909;28;20213;-88
2023/12/02 02:34:55;;;;;;;9.43;7.60;;;;;;;;;;5036952;28;20207;-87
2023/12/02 02:37:22;;;;;;;9.93;8.10;;;;;;;;;;5050394;28;20214;-89
2023/12/02 02:39:51;;;;;;;9.70;7.97;;;;;;;;;;5049812;27;20703;-87
2023/12/02 02:42:17;;;;;;;10.17;8.93;;;;;;;;;;5037156;28;20201;-87
2023/12/02 02:44:44;;;;;;;10.20;9.20;;;;;;;;;;5048901;28;20292;-87
2023/12/02 02:47:14;;;;;;;11.97;8.50;;;;;;;;;;5050246;28;20696;-87
2023/12/02 02:49:41;;;;;;;10.10;9.03;;;;;;;;;;5037010;28;20630;-86
2023/12/02 02:52:07;;;;;;;11.50;8.80;;;;;;;;;;5049913;28;20226;-87
2023/12/02 02:54:34;;;;;;;10.13;8.27;;;;;;;;;;5049957;28;20293;-87
2023/12/02 02:57:02;;;;;;;11.30;10.10;;;;;;;;;;5041417;28;20206;-86
2023/12/02 02:59:29;;;;;;;10.13;8.80;;;;;;;;;;5045013;28;20210;-87
2023/12/02 03:01:56;;;;;;;12.00;8.73;;;;;;;;;;5050225;28;20202;-87
2023/12/02 03:04:23;;;;;;;11.03;9.57;;;;;;;;;;5034265;28;20215;-87
2023/12/02 03:06:50;;;;;;;13.43;8.97;;;;;;;;;;5039081;28;20664;-87
2023/12/02 03:09:17;;;;;;;10.87;8.00;;;;;;;;;;5034211;28;20206;-86
2023/12/02 03:11:44;;;;;;;10.90;8.70;;;;;;;;;;5039256;28;20650;-88
2023/12/02 03:14:13;;;;;;;9.83;8.63;;;;;;;;;;5049345;28;20206;-88
2023/12/02 03:16:39;;;;;;;9.00;8.20;;;;;;;;;;5049536;28;20201;-87
2023/12/02 03:19:08;;;;;;;12.73;9.10;;;;;;;;;;5049922;28;20212;-88
2023/12/02 03:21:35;;;;;;;11.60;8.87;;;;;;;;;;5049477;28;20296;-88
2023/12/02 03:24:01;;;;;;;8.70;7.80;;;;;;;;;;5045545;28;20216;-88
2023/12/02 03:26:28;;;;;;;8.30;7.50;;;;;;;;;;5030228;28;20209;-87
2023/12/02 03:28:55;;;;;;;8.67;7.77;;;;;;;;;;5046749;28;20228;-87
2023/12/02 03:31:23;;;;;;;9.00;8.07;;;;;;;;;;5038721;28;20207;-88
2023/12/02 03:33:50;;;;;;;10.47;7.53;;;;;;;;;;5047170;28;20312;-88
2023/12/02 03:36:17;;;;;;;9.33;8.03;;;;;;;;;;5038184;28;20203;-87
2023/12/02 03:38:44;;;;;;;9.53;7.70;;;;;;;;;;5047188;28;20209;-87
2023/12/02 03:41:13;;;;;;;8.63;6.63;;;;;;;;;;5037893;28;20211;-88
2023/12/02 03:43:40;;;;;;;8.60;7.70;;;;;;;;;;5034776;28;20256;-88
2023/12/02 03:46:08;;;;;;;7.37;6.67;;;;;;;;;;5037093;28;20213;-88
2023/12/02 03:48:36;;;;;;;8.97;8.07;;;;;;;;;;5035536;28;20213;-88
2023/12/02 03:51:04;;;;;;;12.00;8.17;;;;;;;;;;5049557;28;20282;-88
2023/12/02 03:53:34;;;;;;;9.17;7.63;;;;;;;;;;5048936;28;20274;-88
2023/12/02 03:56:01;;;;;;;9.47;7.50;;;;;;;;;;5048538;28;20727;-87
2023/12/02 03:58:28;;;;;;;8.97;7.37;;;;;;;;;;5029729;28;20206;-88
2023/12/02 04:00:55;;;;;;;12.03;7.80;;;;;;;;;;5042718;28;20607;-87
2023/12/02 04:03:21;;;;;;;9.73;8.80;;;;;;;;;;5029600;28;20206;-87
2023/12/02 04:05:50;;;;;;;16.73;8.33;;;;;;;;;;5042450;28;20198;-87
2023/12/02 04:08:17;;;;;;;11.00;9.50;;;;;;;;;;5028962;28;20213;-87
2023/12/02 04:10:44;;;;;;;16.40;14.80;;;;;;;;;;5030287;28;20246;-88
2023/12/02 04:13:11;;;;;;;13.37;11.60;;;;;;;;;;5029180;28;20234;-87
2023/12/02 04:15:37;;;;;;;14.53;11.27;;;;;;;;;;5042253;28;20216;-87
2023/12/02 04:18:05;;;;;;;11.70;10.57;;;;;;;;;;5036761;28;20208;-88
2023/12/02 04:20:32;;;;;;;11.73;9.53;;;;;;;;;;5048706;28;20212;-88
2023/12/02 04:23:00;;;;;;;15.00;10.33;;;;;;;;;;5049200;28;20214;-88
2023/12/02 04:25:27;;;;;;;27.33;21.03;;;;;;;;;;5035500;28;20207;-87
2023/12/02 04:27:54;;;;;;;11.50;10.13;;;;;;;;;;5040070;28;20210;-87
2023/12/02 04:30:20;;;;;;;9.13;8.03;;;;;;;;;;5042177;28;20214;-87
2023/12/02 04:32:47;;;;;;;7.60;6.67;;;;;;;;;;5038032;28;20225;-86
2023/12/02 04:35:14;;;;;;;8.40;6.33;;;;;;;;;;5037705;28;20214;-88
2023/12/02 04:37:41;;;;;;;16.10;12.47;;;;;;;;;;5052155;28;20205;-87
2023/12/02 04:40:11;;;;;;;29.87;22.40;;;;;;;;;;5036268;28;20215;-87
2023/12/02 04:42:39;;;;;;;13.90;11.70;;;;;;;;;;5042086;28;20737;-88
2023/12/02 04:45:07;;;;;;;8.70;7.80;;;;;;;;;;5048738;28;20244;-88
2023/12/02 04:47:34;;;;;;;7.63;6.87;;;;;;;;;;5032146;28;20221;-87
2023/12/02 04:50:01;;;;;;;6.57;5.80;;;;;;;;;;5045738;28;20210;-88
2023/12/02 04:52:28;;;;;;;7.90;6.70;;;;;;;;;;5042638;28;20289;-87
2023/12/02 04:54:55;;;;;;;8.17;6.30;;;;;;;;;;5047832;28;20218;-88
2023/12/02 04:57:23;;;;;;;9.67;8.67;;;;;;;;;;5042477;28;20624;-88
2023/12/02 04:59:50;;;;;;;7.33;6.63;;;;;;;;;;5038440;28;20202;-87
2023/12/02 05:02:18;;;;;;;31.47;22.87;;;;;;;;;;5052169;28;20210;-88
2023/12/02 05:04:45;;;;;;;16.80;14.73;;;;;;;;;;5051820;28;20225;-88
2023/12/02 05:07:15;;;;;;;25.87;20.33;;;;;;;;;;5039874;28;20210;-88
2023/12/02 05:09:42;;;;;;;37.73;26.47;;;;;;;;;;5045377;28;20211;-88
2023/12/02 05:12:09;;;;;;;25.57;19.53;;;;;;;;;;5043775;28;20233;-88
2023/12/02 05:14:38;;;;;;;18.13;14.37;;;;;;;;;;5051078;28;20217;-88
2023/12/02 05:17:05;;;;;;;13.20;10.40;;;;;;;;;;5051333;28;20632;-87
2023/12/02 05:19:32;;;;;;;11.43;9.87;;;;;;;;;;5051634;28;20206;-88
2023/12/02 05:21:59;;;;;;;10.23;9.10;;;;;;;;;;5038684;28;20289;-87
2023/12/02 05:24:26;;;;;;;12.00;10.73;;;;;;;;;;5038664;28;20238;-87
2023/12/02 05:26:53;;;;;;;32.33;25.73;;;;;;;;;;5037978;28;20214;-87
2023/12/02 05:29:20;;;;;;;53.03;32.50;;;;;;;;;;5052041;28;20209;-88
2023/12/02 05:31:48;;;;;;;128.20;71.80;;;;;;;;;;5037118;28;20213;-86
2023/12/02 05:34:15;;;;;;;83.63;54.93;;;;;;;;;;5027171;28;20222;-88
2023/12/02 05:36:42;;;;;;;117.63;69.97;;;;;;;;;;5037930;28;20218;-88
2023/12/02 05:39:09;;;;;;;93.37;65.67;;;;;;;;;;5043613;28;20219;-88
2023/12/02 05:41:36;;;;;;;40.83;33.17;;;;;;;;;;5031717;28;20211;-87
2023/12/02 05:44:03;;;;;;;16.03;13.07;;;;;;;;;;5051275;28;20206;-88
2023/12/02 05:46:30;;;;;;;9.47;7.57;;;;;;;;;;5036615;28;20221;-86
2023/12/02 05:48:58;;;;;;;9.97;8.97;;;;;;;;;;5051511;28;20209;-88
2023/12/02 05:51:25;;;;;;;10.13;8.80;;;;;;;;;;5048720;28;20206;-87
2023/12/02 05:53:52;;;;;;;10.13;8.03;;;;;;;;;;5039935;28;20221;-87
2023/12/02 05:56:19;;;;;;;53.43;26.57;;;;;;;;;;5050650;28;20213;-88
2023/12/02 05:58:46;;;;;;;65.10;33.00;;;;;;;;;;5041814;28;20297;-88
2023/12/02 06:01:20;;;;;;;17.13;13.37;;;;;;;;;;5030748;28;20202;-88
2023/12/02 06:03:48;;;;;;;20.73;15.77;;;;;;;;;;5030841;28;20242;-88
2023/12/02 06:06:17;;;;;;;43.33;26.83;;;;;;;;;;5034251;28;20201;-88
2023/12/02 06:08:43;;;;;;;59.77;37.53;;;;;;;;;;5040238;28;20203;-88
2023/12/02 06:11:10;;;;;;;97.93;63.23;;;;;;;;;;5044119;28;20235;-88
2023/12/02 06:13:37;;;;;;;123.87;72.57;;;;;;;;;;5031145;28;20223;-88
2023/12/02 06:16:04;;;;;;;121.90;84.87;;;;;;;;;;5044393;28;20210;-88
2023/12/02 06:18:32;;;;;;;78.57;57.63;;;;;;;;;;5042562;28;20231;-87
2023/12/02 06:20:58;;;;;;;37.57;28.90;;;;;;;;;;5037649;28;20584;-88
2023/12/02 06:23:27;;;;;;;74.50;53.10;;;;;;;;;;5038622;28;20210;-87
2023/12/02 06:25:53;;;;;;;153.00;111.13;;;;;;;;;;5030681;28;20692;-87
2023/12/02 06:28:21;;;;;;;63.27;49.20;;;;;;;;;;5043090;28;20216;-88
2023/12/02 06:30:48;;;;;;;27.20;20.43;;;;;;;;;;5031347;28;20289;-88
2023/12/02 06:33:15;;;;;;;20.90;17.87;;;;;;;;;;5043268;28;20226;-88
2023/12/02 06:35:42;;;;;;;49.17;42.07;;;;;;;;;;5050116;28;20673;-88
2023/12/02 06:38:09;;;;;;;40.30;34.27;;;;;;;;;;5038285;28;20209;-89
2023/12/02 06:40:37;;;;;;;141.33;93.47;;;;;;;;;;5037704;28;20207;-88
2023/12/02 06:43:04;;;;;;;324.27;212.20;;;;;;;;;;5024548;28;20215;-87
2023/12/02 06:45:31;;;;;;;193.20;124.87;;;;;;;;;;5038115;28;20215;-88
2023/12/02 06:48:00;;;;;;;148.23;98.43;;;;;;;;;;5050359;27;20262;-87
2023/12/02 06:50:27;;;;;;;92.07;67.67;;;;;;;;;;5050335;28;20285;-88
2023/12/02 06:52:54;;;;;;;62.53;45.80;;;;;;;;;;5036713;28;20222;-88
2023/12/02 06:55:21;;;;;;;44.70;32.40;;;;;;;;;;5050587;28;20210;-88
2023/12/02 06:57:49;;;;;;;41.07;32.17;;;;;;;;;;5048377;28;21275;-88
2023/12/02 07:00:18;;;;;;;25.60;21.93;;;;;;;;;;5038687;28;20210;-88
2023/12/02 07:02:45;;;;;;;20.17;18.07;;;;;;;;;;5036272;28;20259;-88
2023/12/02 07:05:12;;;;;;;26.27;23.40;;;;;;;;;;5050162;28;20300;-88
2023/12/02 07:07:39;;;;;;;50.33;38.90;;;;;;;;;;5049574;28;20202;-88
2023/12/02 07:10:07;;;;;;;32.53;28.67;;;;;;;;;;5040827;28;20214;-87
2023/12/02 07:12:33;;;;;;;40.87;35.40;;;;;;;;;;5045349;28;20672;-88
2023/12/02 07:15:02;;;;;;;32.57;28.83;;;;;;;;;;5040485;28;20230;-88
2023/12/02 07:17:29;;;;;;;24.37;21.07;;;;;;;;;;5045687;28;20226;-88
2023/12/02 07:19:55;;;;;;;33.57;30.30;;;;;;;;;;5050024;28;20208;-87
2023/12/02 07:22:22;;;;;;;18.27;16.00;;;;;;;;;;5033501;28;20215;-88
2023/12/02 07:24:49;;;;;;;15.57;13.97;;;;;;;;;;5030153;28;20217;-88
2023/12/02 07:27:16;;;;;;;14.50;13.00;;;;;;;;;;5033270;28;20572;-88
2023/12/02 07:29:43;;;;;;;18.73;16.83;;;;;;;;;;5049671;28;20217;-88
2023/12/02 07:32:11;;;;;;;13.83;12.50;;;;;;;;;;5045389;28;20685;-87
2023/12/02 07:34:39;;;;;;;13.47;11.10;;;;;;;;;;5040392;28;20222;-88
2023/12/02 07:37:06;;;;;;;13.37;11.93;;;;;;;;;;5045290;28;20202;-88
2023/12/02 07:39:33;;;;;;;22.10;20.00;;;;;;;;;;5040434;28;20223;-88
2023/12/02 07:42:00;;;;;;;16.10;14.33;;;;;;;;;;5044878;28;20203;-88
2023/12/02 07:44:27;;;;;;;12.83;11.53;;;;;;;;;;5041022;28;20265;-88
2023/12/02 07:46:54;;;;;;;16.57;14.50;;;;;;;;;;5044808;28;20215;-88
2023/12/02 07:49:22;;;;;;;14.60;12.57;;;;;;;;;;5040825;28;20194;-88
2023/12/02 07:51:49;;;;;;;14.20;12.70;;;;;;;;;;5036381;28;20214;-88
2023/12/02 07:54:15;;;;;;;12.93;11.17;;;;;;;;;;5037041;28;20231;-88
2023/12/02 07:56:42;;;;;;;11.73;10.53;;;;;;;;;;5048203;28;20214;-88
2023/12/02 07:59:09;;;;;;;15.53;12.40;;;;;;;;;;5037432;28;20236;-88
2023/12/02 08:01:36;;;;;;;14.53;11.33;;;;;;;;;;5042607;28;20206;-88
2023/12/02 08:04:03;;;;;;;12.57;11.27;;;;;;;;;;5041743;28;20206;-88
2023/12/02 08:06:31;;;;;;;12.40;10.23;;;;;;;;;;5043173;28;20210;-87
2023/12/02 08:09:00;;;;;;;16.00;12.73;;;;;;;;;;5041551;28;20229;-88
2023/12/02 08:11:27;;;;;;;15.43;13.27;;;;;;;;;;5023028;28;20241;-87
2023/12/02 08:13:54;;;;;;;15.33;13.40;;;;;;;;;;5048385;28;20221;-87
2023/12/02 08:16:21;;;;;;;14.50;12.00;;;;;;;;;;5029566;28;20214;-88
2023/12/02 08:18:48;;;;;;;18.10;13.77;;;;;;;;;;5042105;28;20214;-88
2023/12/02 08:21:15;;;;;;;13.37;11.97;;;;;;;;;;5036304;28;20274;-88
2023/12/02 08:23:42;;;;;;;12.67;11.47;;;;;;;;;;5035258;28;20206;-88
2023/12/02 08:26:09;;;;;;;15.33;13.73;;;;;;;;;;5041024;28;20211;-88
2023/12/02 08:28:36;;;;;;;25.67;22.93;;;;;;;;;;5029982;28;20202;-88
2023/12/02 08:31:02;;;;;;;22.63;20.07;;;;;;;;;;5048750;28;20210;-88
2023/12/02 08:33:29;;;;;;;19.50;17.60;;;;;;;;;;5035285;28;20214;-88
2023/12/02 08:35:56;;;;;;;74.40;64.90;;;;;;;;;;5041363;28;20214;-88
2023/12/02 08:38:23;;;;;;;45.57;39.93;;;;;;;;;;5029874;28;20685;-88
2023/12/02 08:40:51;;;;;;;28.23;25.30;;;;;;;;;;5041200;28;20293;-89
2023/12/02 08:43:18;;;;;;;25.40;21.87;;;;;;;;;;5014278;28;20226;-88
2023/12/02 08:45:45;;;;;;;17.57;15.77;;;;;;;;;;5025566;28;20212;-88
2023/12/02 08:48:12;;;;;;;15.03;13.50;;;;;;;;;;5047271;28;20220;-88
2023/12/02 08:50:39;;;;;;;18.80;16.90;;;;;;;;;;5029093;28;20206;-88
2023/12/02 08:53:05;;;;;;;16.07;14.23;;;;;;;;;;5041534;28;20202;-88
2023/12/02 08:55:33;;;;;;;15.67;14.07;;;;;;;;;;5028683;28;20231;-88
2023/12/02 08:58:02;;;;;;;18.47;16.57;;;;;;;;;;5042207;28;20269;-87
2023/12/02 09:00:30;;;;;;;34.30;28.70;;;;;;;;;;5037511;28;20687;-87
2023/12/02 09:02:57;;;;;;;22.37;20.10;;;;;;;;;;5045924;28;20202;-88
2023/12/02 09:05:24;;;;;;;20.97;18.00;;;;;;;;;;5038087;28;20198;-88
2023/12/02 09:07:51;;;;;;;28.50;25.70;;;;;;;;;;5047662;27;20295;-87
2023/12/02 09:10:19;;;;;;;21.73;19.43;;;;;;;;;;5037917;28;20230;-88
2023/12/02 09:12:46;;;;;;;14.63;13.10;;;;;;;;;;5032383;28;20221;-88
2023/12/02 09:15:38;;;;;;;14.20;12.40;;;;;;;;;;5048226;28;20248;-88
2023/12/02 09:18:11;;;;;;;15.23;13.17;;;;;;;;;;5036187;28;20240;-87
2023/12/02 09:20:45;;;;;;;15.60;14.00;;;;;;;;;;5046491;28;20210;-88
2023/12/02 09:23:16;;;;;;;15.27;13.80;;;;;;;;;;5041427;28;20697;-87
2023/12/02 09:25:43;;;;;;;16.10;14.40;;;;;;;;;;5034546;28;20268;-88
2023/12/02 09:28:14;;;;;;;25.13;20.37;;;;;;;;;;5042880;28;20668;-87
2023/12/02 09:30:53;;;;;;;18.70;16.77;;;;;;;;;;5050803;28;20267;-86
2023/12/02 09:33:20;;;;;;;11.17;10.07;;;;;;;;;;5037609;28;20210;-87
2023/12/02 09:35:51;;;;;;;11.67;9.20;;;;;;;;;;5051492;28;20222;-88
2023/12/02 09:38:18;;;;;;;9.40;8.43;;;;;;;;;;5038130;28;20203;-87
2023/12/02 09:41:15;;;;;;;11.80;10.60;;;;;;;;;;5042964;28;20213;-88
2023/12/02 09:43:50;;;;;;;11.63;9.07;;;;;;;;;;5048012;28;20603;-87
2023/12/02 09:46:26;;;;;;;12.13;9.57;;;;;;;;;;5031816;28;20202;-88
2023/12/02 09:49:06;;;;;;;13.07;11.67;;;;;;;;;;5039996;28;20292;-88
2023/12/02 09:51:54;;;;;;;14.93;13.37;;;;;;;;;;5051424;28;20198;-87
2023/12/02 09:54:27;;;;;;;12.03;10.87;;;;;;;;;;5037831;28;20231;-88
2023/12/02 09:56:57;;;;;;;9.57;8.57;;;;;;;;;;5031289;28;20203;-87
2023/12/02 09:59:34;;;;;;;8.60;7.80;;;;;;;;;;5045708;28;20688;-88
2023/12/02 10:02:05;;;;;;;7.83;7.13;;;;;;;;;;5051304;28;20203;-87
2023/12/02 10:04:39;;;;;;;8.10;7.30;;;;;;;;;;5047109;28;20203;-86
2023/12/02 10:07:11;;;;;;;8.73;7.93;;;;;;;;;;5042307;28;20210;-87
2023/12/02 10:09:44;;;;;;;7.80;7.10;;;;;;;;;;5045126;28;20189;-87
2023/12/02 10:12:36;;;;;;;8.87;7.83;;;;;;;;;;5044013;28;20325;-87
2023/12/02 10:15:06;;;;;;;12.53;10.10;;;;;;;;;;5020681;28;20226;-87
2023/12/02 10:17:38;;;;;;;25.03;17.13;;;;;;;;;;5043895;28;20234;-87
2023/12/02 10:20:11;;;;;;;12.07;10.87;;;;;;;;;;5041469;28;20248;-87
2023/12/02 10:22:44;;;;;;;9.53;8.63;;;;;;;;;;5050278;28;20289;-87
2023/12/02 10:25:14;;;;;;;9.60;7.97;;;;;;;;;;5050891;28;20662;-87
2023/12/02 10:27:42;;;;;;;11.03;9.57;;;;;;;;;;5050482;28;20198;-88
2023/12/02 10:30:11;;;;;;;11.33;9.43;;;;;;;;;;5037464;28;20203;-88
2023/12/02 10:32:58;;;;;;;27.37;24.37;;;;;;;;;;5042686;28;20202;-87
2023/12/02 10:35:31;;;;;;;12.20;10.90;;;;;;;;;;5033865;28;20228;-87
2023/12/02 10:38:05;;;;;;;19.53;16.43;;;;;;;;;;5050124;28;20262;-88
2023/12/02 10:40:33;;;;;;;16.13;14.27;;;;;;;;;;5050264;28;20256;-87
2023/12/02 10:43:10;;;;;;;14.37;12.90;;;;;;;;;;5038632;28;20217;-87
2023/12/02 10:45:41;;;;;;;14.23;12.40;;;;;;;;;;5038112;28;20213;-87
2023/12/02 10:48:11;;;;;;;13.57;11.10;;;;;;;;;;5034654;28;20210;-87
2023/12/02 10:50:40;;;;;;;13.80;12.50;;;;;;;;;;5030097;28;20215;-87
2023/12/02 10:53:08;;;;;;;21.70;15.90;;;;;;;;;;5046795;28;20202;-87
2023/12/02 10:55:38;;;;;;;19.47;15.87;;;;;;;;;;5040359;28;20230;-87
2023/12/02 10:58:07;;;;;;;21.20;16.97;;;;;;;;;;5033891;28;20206;-87
2023/12/02 11:00:35;;;;;;;50.93;37.10;;;;;;;;;;5049910;28;20214;-87
2023/12/02 11:03:07;;;;;;;27.00;23.13;;;;;;;;;;5045284;28;20203;-87
2023/12/02 11:05:45;;;;;;;33.67;22.63;;;;;;;;;;5042155;28;20221;-87
2023/12/02 11:08:19;;;;;;;22.63;17.80;;;;;;;;;;5049599;28;20206;-87
2023/12/02 11:10:49;;;;;;;20.97;18.70;;;;;;;;;;5049274;28;20269;-87
2023/12/02 11:13:17;;;;;;;17.93;15.47;;;;;;;;;;5049909;28;20210;-87
2023/12/02 11:16:04;;;;;;;20.50;16.37;;;;;;;;;;5036232;28;20234;-87
2023/12/02 11:18:37;;;;;;;15.60;12.93;;;;;;;;;;5049699;28;20210;-87
2023/12/02 11:21:08;;;;;;;14.10;12.63;;;;;;;;;;5036779;28;20636;-87
2023/12/02 11:23:50;;;;;;;18.57;13.13;;;;;;;;;;5049440;28;20209;-87
2023/12/02 11:26:23;;;;;;;13.90;12.50;;;;;;;;;;5038363;28;20234;-87
2023/12/02 11:29:02;;;;;;;17.87;15.33;;;;;;;;;;5036211;28;20198;-88
2023/12/02 11:31:39;;;;;;;13.77;11.57;;;;;;;;;;5037828;28;20234;-88
2023/12/02 11:34:22;;;;;;;14.87;13.00;;;;;;;;;;5029408;28;20581;-87
2023/12/02 11:37:00;;;;;;;17.33;14.50;;;;;;;;;;5044693;28;20210;-87
2023/12/02 11:39:37;;;;;;;23.07;14.57;;;;;;;;;;5039209;28;20209;-87
2023/12/02 11:42:12;;;;;;;16.97;13.47;;;;;;;;;;5029746;28;20301;-88
2023/12/02 11:44:48;;;;;;;19.50;14.33;;;;;;;;;;5041991;28;20202;-87
2023/12/02 11:47:27;;;;;;;19.43;17.43;;;;;;;;;;5049046;28;20212;-87
2023/12/02 11:50:07;;;;;;;19.30;16.47;;;;;;;;;;5032779;28;20211;-88
2023/12/02 11:52:44;;;;;;;14.67;13.03;;;;;;;;;;5040715;28;20209;-87
2023/12/02 11:55:17;;;;;;;9.03;8.10;;;;;;;;;;5042978;28;20234;-87
2023/12/02 11:58:04;;;;;;;9.10;8.27;;;;;;;;;;5029601;28;20617;-87
2023/12/02 12:00:41;;;;;;;10.50;9.43;;;;;;;;;;5039011;28;20221;-88
2023/12/02 12:03:34;;;;;;;11.60;9.17;;;;;;;;;;5047750;28;20202;-87
2023/12/02 12:06:09;;;;;;;10.17;8.60;;;;;;;;;;5046619;28;20688;-87
2023/12/02 12:08:46;;;;;;;10.50;9.40;;;;;;;;;;5039457;28;20205;-86
2023/12/02 12:11:17;;;;;;;13.30;9.63;;;;;;;;;;5048359;28;20237;-87
2023/12/02 12:13:46;;;;;;;13.80;11.50;;;;;;;;;;5036704;28;20214;-87
2023/12/02 12:16:15;;;;;;;10.87;9.70;;;;;;;;;;5028564;28;20708;-87
2023/12/02 12:18:42;;;;;;;9.33;8.40;;;;;;;;;;5029083;28;20646;-87
2023/12/02 12:21:10;;;;;;;13.17;11.20;;;;;;;;;;5047990;28;20660;-87
2023/12/02 12:23:38;;;;;;;10.47;9.37;;;;;;;;;;5048175;28;20265;-87
2023/12/02 12:26:06;;;;;;;11.90;10.80;;;;;;;;;;5023212;28;20202;-88
2023/12/02 12:28:34;;;;;;;11.83;9.70;;;;;;;;;;5048220;28;20210;-87
2023/12/02 12:31:01;;;;;;;12.70;10.13;;;;;;;;;;5037092;28;20594;-88
2023/12/02 12:33:30;;;;;;;12.97;11.70;;;;;;;;;;5047768;28;20650;-88
2023/12/02 12:35:57;;;;;;;15.03;11.93;;;;;;;;;;5036871;28;20233;-87
2023/12/02 12:38:24;;;;;;;14.87;11.67;;;;;;;;;;5048699;28;20206;-87
2023/12/02 12:40:52;;;;;;;16.13;11.63;;;;;;;;;;5040578;28;20207;-88
2023/12/02 12:43:19;;;;;;;11.80;10.27;;;;;;;;;;5030301;28;20219;-87
2023/12/02 12:45:50;;;;;;;13.27;9.10;;;;;;;;;;5048742;28;20205;-87
2023/12/02 12:48:23;;;;;;;16.37;13.20;;;;;;;;;;5035429;28;20209;-87
2023/12/02 12:50:52;;;;;;;15.50;13.33;;;;;;;;;;5048684;28;20210;-87
2023/12/02 12:53:19;;;;;;;16.20;14.03;;;;;;;;;;5030769;28;20207;-87
2023/12/02 12:55:46;;;;;;;17.37;14.57;;;;;;;;;;5041447;28;20225;-88
2023/12/02 12:58:17;;;;;;;30.67;19.97;;;;;;;;;;5034036;28;20237;-87
2023/12/02 13:00:47;;;;;;;16.33;13.27;;;;;;;;;;5031893;28;20207;-87
2023/12/02 13:03:29;;;;;;;17.53;13.67;;;;;;;;;;5037979;28;20210;-87
2023/12/02 13:06:06;;;;;;;22.37;17.80;;;;;;;;;;5051225;28;20596;-87
2023/12/02 13:08:35;;;;;;;13.10;11.73;;;;;;;;;;5051970;28;20206;-87
2023/12/02 13:11:03;;;;;;;11.70;10.60;;;;;;;;;;5048227;28;20236;-87
2023/12/02 13:13:33;;;;;;;13.13;11.37;;;;;;;;;;5042211;28;20211;-88
2023/12/02 13:16:01;;;;;;;16.60;11.20;;;;;;;;;;5047156;28;20238;-88
2023/12/02 13:18:29;;;;;;;34.17;25.57;;;;;;;;;;5043053;28;20209;-87
2023/12/02 13:20:56;;;;;;;18.60;16.17;;;;;;;;;;5038128;28;20214;-87
2023/12/02 13:23:24;;;;;;;12.73;11.07;;;;;;;;;;5040205;28;20207;-87
2023/12/02 13:25:52;;;;;;;12.30;11.10;;;;;;;;;;5031738;28;20210;-88
2023/12/02 13:28:25;;;;;;;16.20;11.60;;;;;;;;;;5044549;28;20212;-87
2023/12/02 13:31:04;;;;;;;12.27;11.00;;;;;;;;;;5025612;28;20216;-88
2023/12/02 13:33:37;;;;;;;15.87;14.03;;;;;;;;;;5036256;28;20203;-88
2023/12/02 13:36:08;;;;;;;16.77;14.97;;;;;;;;;;5031321;28;20237;-88
2023/12/02 13:38:35;;;;;;;13.47;12.03;;;;;;;;;;5048542;28;20209;-88
2023/12/02 13:41:14;;;;;;;53.43;36.20;;;;;;;;;;5051751;28;20213;-88
2023/12/02 13:43:46;;;;;;;32.47;27.33;;;;;;;;;;5032559;28;20610;-87
2023/12/02 13:46:18;;;;;;;22.00;17.40;;;;;;;;;;5044710;28;20206;-87
2023/12/02 13:48:52;;;;;;;20.17;15.93;;;;;;;;;;5039023;28;20203;-87
2023/12/02 13:51:28;;;;;;;15.23;12.83;;;;;;;;;;5037830;28;20222;-87
2023/12/02 13:54:06;;;;;;;17.50;15.33;;;;;;;;;;5040675;28;20688;-88
2023/12/02 13:56:43;;;;;;;17.60;15.63;;;;;;;;;;5044490;28;20612;-88
2023/12/02 13:59:12;;;;;;;18.87;16.77;;;;;;;;;;5044559;28;20830;-87
2023/12/02 14:01:45;;;;;;;19.43;16.27;;;;;;;;;;5025930;28;20209;-87
2023/12/02 14:04:25;;;;;;;24.73;16.97;;;;;;;;;;5035750;28;20219;-87
2023/12/02 14:07:01;;;;;;;33.27;23.47;;;;;;;;;;5040714;28;20260;-87
2023/12/02 14:09:28;;;;;;;34.93;30.17;;;;;;;;;;5050692;28;20298;-87
2023/12/02 14:12:15;;;;;;;35.07;31.27;;;;;;;;;;5051000;28;20238;-87
2023/12/02 14:15:03;;;;;;;20.77;18.57;;;;;;;;;;5037946;28;20213;-86
2023/12/02 14:17:45;;;;;;;22.87;20.57;;;;;;;;;;5037238;28;20226;-88
2023/12/02 14:20:36;;;;;;;21.97;19.67;;;;;;;;;;5050854;28;20212;-88
2023/12/02 14:23:19;;;;;;;21.20;18.57;;;;;;;;;;5029712;28;20209;-87
2023/12/02 14:26:06;;;;;;;20.67;18.20;;;;;;;;;;5045815;28;20214;-87
2023/12/02 14:28:42;;;;;;;22.33;18.60;;;;;;;;;;5018916;28;20218;-87
2023/12/02 14:31:22;;;;;;;30.60;23.33;;;;;;;;;;5050925;28;20208;-88
2023/12/02 14:34:12;;;;;;;32.40;23.47;;;;;;;;;;5037072;28;20221;-87
2023/12/02 14:37:00;;;;;;;23.73;20.50;;;;;;;;;;5050031;28;20226;-87